Aviation Digital Data Service (ADDS)

Output produced by METARs form (0340 UTC 26 June 2019)
found at http://www.aviationweather.gov/metar/data/
 
Forecast for: FCBB (BRAZZAVILLE/MAYA, CG)
Text: TAF FCBB 252300Z 2600/2706 23004KT 4000 BR BKN013 FM 260900 24004KT 7000 SCT016
Forecast period: 0000 to 0900 UTC 26 June 2019
Forecast type: FROM: standard forecast or significant change
Winds: from the SW (230 degrees) at 5 MPH (4 knots; 2.1 m/s)
Visibility: 2.49 miles (4.01 km)
Ceiling: 1300 feet AGL
Clouds: broken clouds at 1300 feet AGL
Weather: BR  (mist)
Text:
Forecast period: 0900 UTC 26 June 2019 to 0600 UTC 27 June 2019
Forecast type: FROM: standard forecast or significant change
Winds: from the WSW (240 degrees) at 5 MPH (4 knots; 2.1 m/s)
Visibility: 4 miles (7 km)
Ceiling: at least 12,000 feet AGL
Clouds: scattered clouds at 1600 feet AGL
Weather: no significant weather forecast for this period